Time;durP1;ratioP1;P1;durP2;ratioP2;P2;SDS_P1;SDS_P2;PMS_P1;PMS_P2;Temp;Humidity;BMP_temperature;BMP_pressure;BME280_temperature;BME280_humidity;BME280_pressure;Samples;Min_cycle;Max_cycle;Signal;HPM_P1;HPM_P2
2023/08/01 00:01:28;;;;;;;34.65;31.13;;;19.50;99.90;;;;;;4970555;28;20034;-63
2023/08/01 00:03:53;;;;;;;32.17;29.20;;;19.50;99.90;;;;;;4968422;28;20053;-64
2023/08/01 00:06:19;;;;;;;33.45;30.35;;;19.90;99.90;;;;;;4962286;28;20465;-64
2023/08/01 00:08:45;;;;;;;35.55;32.25;;;19.60;99.90;;;;;;4963193;28;20083;-63
2023/08/01 00:11:11;;;;;;;36.50;32.72;;;19.40;99.90;;;;;;4966685;28;20097;-63
2023/08/01 00:13:37;;;;;;;37.33;33.50;;;20.50;99.90;;;;;;4963293;28;20541;-64
2023/08/01 00:16:02;;;;;;;35.78;32.38;;;19.50;99.90;;;;;;4962631;28;20102;-63
2023/08/01 00:18:28;;;;;;;36.42;32.90;;;20.60;99.90;;;;;;4963190;28;20042;-64
2023/08/01 00:20:54;;;;;;;36.67;33.13;;;20.60;99.90;;;;;;4967113;28;20039;-64
2023/08/01 00:23:19;;;;;;;35.92;32.47;;;20.10;99.90;;;;;;4963889;28;20042;-63
2023/08/01 00:25:51;;;;;;;35.10;31.58;;;20.50;99.90;;;;;;4967864;28;20065;-63
2023/08/01 00:28:21;;;;;;;36.60;32.75;;;19.20;99.90;;;;;;4971070;28;20050;-63
2023/08/01 00:30:47;;;;;;;37.30;33.83;;;19.50;99.90;;;;;;4967063;28;20046;-64
2023/08/01 00:33:13;;;;;;;36.17;32.65;;;19.20;99.90;;;;;;4963813;28;20401;-64
2023/08/01 00:35:38;;;;;;;35.30;31.80;;;20.50;99.90;;;;;;4971712;28;20653;-63
2023/08/01 00:38:04;;;;;;;35.53;31.88;;;19.80;99.90;;;;;;4964008;28;20051;-63
2023/08/01 00:40:34;;;;;;;36.00;31.60;;;20.40;99.90;;;;;;4961791;28;20146;-64
2023/08/01 00:43:00;;;;;;;34.78;31.35;;;19.50;99.90;;;;;;4964160;28;20050;-64
2023/08/01 00:45:29;;;;;;;35.25;31.88;;;19.30;99.90;;;;;;4965071;28;20042;-63
2023/08/01 00:47:56;;;;;;;35.30;31.80;;;19.20;99.90;;;;;;4964788;28;20361;-64
2023/08/01 00:50:22;;;;;;;36.78;32.85;;;20.20;99.90;;;;;;4966589;28;20479;-64
2023/08/01 00:52:51;;;;;;;36.20;32.40;;;19.40;99.90;;;;;;4963580;28;20039;-64
2023/08/01 00:55:18;;;;;;;35.50;31.58;;;20.50;99.90;;;;;;4963773;28;20051;-64
2023/08/01 00:57:44;;;;;;;35.17;31.50;;;19.40;99.90;;;;;;4967950;28;20035;-64
2023/08/01 01:00:10;;;;;;;36.20;32.70;;;19.50;99.90;;;;;;4969590;28;20453;-64
2023/08/01 01:02:36;;;;;;;34.67;30.98;;;19.50;99.90;;;;;;4962299;28;20042;-63
2023/08/01 01:05:02;;;;;;;34.05;30.77;;;21.00;99.90;;;;;;4962520;28;20035;-64
2023/08/01 01:07:29;;;;;;;34.85;31.10;;;19.60;99.90;;;;;;4966386;28;20520;-64
2023/08/01 01:09:55;;;;;;;33.70;29.77;;;19.70;99.90;;;;;;4964172;28;20039;-63
2023/08/01 01:12:20;;;;;;;33.95;30.65;;;19.70;99.90;;;;;;4968327;28;20046;-63
2023/08/01 01:14:46;;;;;;;33.90;30.40;;;20.20;99.90;;;;;;4966995;28;20039;-64
2023/08/01 01:17:12;;;;;;;34.10;30.67;;;19.60;99.90;;;;;;4963269;28;20571;-63
2023/08/01 01:19:38;;;;;;;34.75;31.33;;;19.70;99.90;;;;;;4978518;28;20559;-63
2023/08/01 01:22:09;;;;;;;33.47;30.17;;;19.30;99.90;;;;;;4963065;28;20118;-64
2023/08/01 01:24:35;;;;;;;35.33;31.77;;;19.40;99.90;;;;;;4967068;28;20062;-64
2023/08/01 01:27:03;;;;;;;36.75;33.10;;;19.20;99.90;;;;;;4962800;28;20520;-64
2023/08/01 01:29:29;;;;;;;34.03;30.55;;;19.80;99.90;;;;;;4963397;28;20116;-63
2023/08/01 01:31:57;;;;;;;34.58;31.10;;;20.20;99.90;;;;;;4960239;28;20106;-64
2023/08/01 01:34:22;;;;;;;34.25;30.95;;;19.20;99.90;;;;;;4965047;28;20081;-64
2023/08/01 01:36:48;;;;;;;34.25;30.73;;;20.40;99.90;;;;;;4962881;28;20520;-64
2023/08/01 01:39:14;;;;;;;36.97;33.38;;;20.40;99.90;;;;;;4962843;28;20065;-64
2023/08/01 01:41:39;;;;;;;37.45;33.45;;;20.00;99.90;;;;;;4960751;28;20424;-64
2023/08/01 01:44:05;;;;;;;40.92;34.90;;;19.50;99.90;;;;;;4961976;28;20035;-65
2023/08/01 01:46:30;;;;;;;34.78;30.73;;;20.60;99.90;;;;;;4966557;28;20387;-65
2023/08/01 01:48:57;;;;;;;43.70;29.98;;;20.50;99.90;;;;;;4961718;28;20388;-65
2023/08/01 01:51:24;;;;;;;36.47;28.65;;;19.30;99.90;;;;;;4965155;28;20110;-66
2023/08/01 01:53:50;;;;;;;37.58;28.13;;;19.70;99.90;;;;;;4965713;28;20039;-65
2023/08/01 01:56:15;;;;;;;42.40;28.63;;;19.50;99.90;;;;;;4961380;28;20038;-66
2023/08/01 01:58:41;;;;;;;44.17;27.33;;;19.40;99.90;;;;;;4959665;28;20387;-65
2023/08/01 02:01:06;;;;;;;37.95;29.02;;;18.30;99.90;;;;;;4967649;28;20070;-65
2023/08/01 02:03:32;;;;;;;33.55;30.00;;;17.60;99.90;;;;;;4968856;28;20049;-65
2023/08/01 02:05:57;;;;;;;36.63;30.50;;;19.90;99.90;;;;;;4962875;28;20047;-65
2023/08/01 02:08:23;;;;;;;32.15;29.00;;;18.10;99.90;;;;;;4965745;28;20094;-66
2023/08/01 02:10:49;;;;;;;33.53;30.27;;;17.60;99.90;;;;;;4967507;28;20497;-65
2023/08/01 02:13:14;;;;;;;34.13;30.88;;;20.00;99.90;;;;;;4962899;28;20197;-64
2023/08/01 02:15:40;;;;;;;32.30;29.27;;;17.60;99.90;;;;;;4962804;28;20030;-65
2023/08/01 02:18:05;;;;;;;32.17;29.30;;;17.70;99.90;;;;;;4973122;28;20047;-65
2023/08/01 02:20:31;;;;;;;33.90;30.50;;;20.00;99.90;;;;;;4965331;28;20043;-65
2023/08/01 02:22:57;;;;;;;35.85;32.25;;;18.40;99.90;;;;;;4966421;28;20081;-64
2023/08/01 02:25:23;;;;;;;32.85;29.58;;;17.80;99.90;;;;;;4961400;28;20109;-64
2023/08/01 02:27:48;;;;;;;32.22;29.30;;;20.00;99.90;;;;;;4964216;28;20401;-65
2023/08/01 02:30:14;;;;;;;33.15;29.90;;;20.00;99.90;;;;;;4964716;28;20087;-64
2023/08/01 02:32:39;;;;;;;34.60;31.27;;;20.00;99.90;;;;;;4963401;28;20042;-64
2023/08/01 02:35:05;;;;;;;35.22;31.85;;;20.10;99.90;;;;;;4967116;28;20084;-65
2023/08/01 02:37:31;;;;;;;36.13;32.65;;;20.20;99.90;;;;;;4958744;28;20073;-64
2023/08/01 02:39:56;;;;;;;36.38;32.67;;;20.30;99.90;;;;;;4963676;28;20496;-64
2023/08/01 02:42:22;;;;;;;35.03;31.92;;;18.10;99.90;;;;;;4963719;28;20039;-65
2023/08/01 02:44:47;;;;;;;35.85;32.83;;;19.20;99.90;;;;;;4967531;28;20038;-65
2023/08/01 02:47:13;;;;;;;35.13;31.90;;;18.90;99.90;;;;;;4964970;28;20060;-64
2023/08/01 02:49:38;;;;;;;35.50;32.38;;;19.90;99.90;;;;;;4964968;28;20074;-64
2023/08/01 02:52:04;;;;;;;36.88;33.35;;;20.20;99.90;;;;;;4961148;28;20046;-65
2023/08/01 02:54:30;;;;;;;36.08;32.70;;;18.70;99.90;;;;;;4960539;28;20421;-64
2023/08/01 02:56:55;;;;;;;35.63;32.17;;;18.80;99.90;;;;;;4962354;28;20500;-64
2023/08/01 02:59:21;;;;;;;35.28;31.75;;;20.20;99.90;;;;;;4965509;28;20465;-64
2023/08/01 03:01:46;;;;;;;34.97;31.67;;;18.30;99.90;;;;;;4965458;28;20452;-64
2023/08/01 03:04:12;;;;;;;34.90;31.80;;;20.20;99.90;;;;;;4961632;28;20038;-64
2023/08/01 03:06:38;;;;;;;35.28;32.08;;;20.20;99.90;;;;;;4959129;28;20523;-64
2023/08/01 03:09:07;;;;;;;36.30;32.95;;;19.10;99.90;;;;;;4963942;28;20070;-64
2023/08/01 03:11:35;;;;;;;34.38;31.27;;;17.80;99.90;;;;;;4968665;28;20523;-65
2023/08/01 03:14:00;;;;;;;38.70;34.95;;;18.30;99.90;;;;;;4964279;28;20110;-64
2023/08/01 03:16:26;;;;;;;36.33;32.78;;;18.30;99.90;;;;;;4960901;28;20070;-65
2023/08/01 03:18:51;;;;;;;35.13;31.88;;;20.00;99.90;;;;;;4965631;28;20046;-65
2023/08/01 03:21:17;;;;;;;34.42;31.13;;;18.00;99.90;;;;;;4974364;28;20047;-66
2023/08/01 03:23:43;;;;;;;37.85;34.00;;;18.90;99.90;;;;;;4960066;28;20045;-64
2023/08/01 03:26:08;;;;;;;36.22;32.92;;;20.20;99.90;;;;;;4964351;28;20039;-64
2023/08/01 03:28:34;;;;;;;36.92;33.60;;;20.30;99.90;;;;;;4961313;28;20054;-64
2023/08/01 03:31:00;;;;;;;38.13;34.47;;;19.00;99.90;;;;;;4970365;28;20543;-64
2023/08/01 03:33:26;;;;;;;36.65;33.33;;;19.60;99.90;;;;;;4967219;28;20496;-64
2023/08/01 03:35:51;;;;;;;37.88;34.53;;;19.30;99.90;;;;;;4967131;28;20404;-64
2023/08/01 03:38:17;;;;;;;38.97;35.22;;;18.50;99.90;;;;;;4960952;28;21379;-64
2023/08/01 03:40:43;;;;;;;39.28;35.70;;;20.00;99.90;;;;;;4968706;28;20051;-64
2023/08/01 03:43:10;;;;;;;41.20;36.83;;;20.40;99.90;;;;;;4961658;28;20082;-64
2023/08/01 03:45:35;;;;;;;40.35;36.58;;;18.40;99.90;;;;;;4966414;28;20065;-63
2023/08/01 03:48:01;;;;;;;39.50;35.80;;;20.00;99.90;;;;;;4965266;28;20039;-63
2023/08/01 03:50:26;;;;;;;39.38;35.75;;;18.10;99.90;;;;;;4961875;28;20117;-64
2023/08/01 03:52:52;;;;;;;38.20;34.33;;;20.40;99.90;;;;;;4962734;28;20113;-64
2023/08/01 03:55:18;;;;;;;31.80;28.90;;;18.70;99.90;;;;;;4967568;28;20078;-64
2023/08/01 03:57:43;;;;;;;33.13;29.65;;;18.30;99.90;;;;;;4967009;28;20051;-64
2023/08/01 04:00:18;;;;;;;32.85;29.85;;;18.30;99.90;;;;;;4968149;28;20035;-64
2023/08/01 04:02:44;;;;;;;32.75;29.60;;;18.30;99.90;;;;;;4962475;28;20054;-64
2023/08/01 04:05:10;;;;;;;32.78;29.40;;;19.90;99.90;;;;;;4963683;28;20654;-63
2023/08/01 04:07:38;;;;;;;35.22;31.70;;;20.00;99.90;;;;;;4964712;28;20051;-64
2023/08/01 04:10:05;;;;;;;36.20;32.65;;;19.60;99.90;;;;;;4975996;28;20043;-64
2023/08/01 04:12:32;;;;;;;35.38;32.22;;;18.40;99.90;;;;;;4963081;28;20624;-64
2023/08/01 04:14:58;;;;;;;36.50;32.83;;;18.10;99.90;;;;;;4965503;28;20046;-63
2023/08/01 04:17:24;;;;;;;36.92;33.03;;;18.20;99.90;;;;;;4967422;28;20035;-64
2023/08/01 04:19:50;;;;;;;37.22;33.53;;;19.60;99.90;;;;;;4965870;28;20105;-64
2023/08/01 04:22:15;;;;;;;37.03;33.22;;;20.20;99.90;;;;;;4965190;28;20035;-63
2023/08/01 04:24:41;;;;;;;37.38;33.78;;;19.90;99.90;;;;;;4968068;28;20573;-64
2023/08/01 04:27:07;;;;;;;40.72;35.88;;;20.00;99.90;;;;;;4964690;28;20058;-64
2023/08/01 04:29:32;;;;;;;39.50;35.40;;;18.10;99.90;;;;;;4965909;28;20046;-64
2023/08/01 04:31:58;;;;;;;40.25;36.08;;;20.00;99.90;;;;;;4961975;28;20416;-64
2023/08/01 04:34:24;;;;;;;40.60;36.47;;;19.90;99.90;;;;;;4969964;28;20561;-64
2023/08/01 04:36:49;;;;;;;36.70;33.00;;;19.60;99.90;;;;;;4969155;28;20509;-65
2023/08/01 04:39:15;;;;;;;35.55;32.05;;;18.10;99.90;;;;;;4959063;28;20047;-64
2023/08/01 04:41:40;;;;;;;37.85;34.25;;;18.60;99.90;;;;;;4967569;28;20549;-64
2023/08/01 04:44:06;;;;;;;38.92;34.80;;;19.60;99.90;;;;;;4967145;28;20043;-64
2023/08/01 04:46:32;;;;;;;38.03;33.50;;;18.90;99.90;;;;;;4964445;28;20047;-64
2023/08/01 04:48:58;;;;;;;37.55;33.50;;;18.30;99.90;;;;;;4965669;28;20412;-65
2023/08/01 04:51:24;;;;;;;38.45;34.30;;;19.60;99.90;;;;;;4968381;28;20124;-65
2023/08/01 04:53:50;;;;;;;40.50;32.42;;;17.90;99.90;;;;;;4970436;28;20039;-64
2023/08/01 04:56:15;;;;;;;36.80;33.20;;;19.60;99.90;;;;;;4968018;28;20038;-65
2023/08/01 04:58:41;;;;;;;38.28;34.20;;;19.60;99.90;;;;;;4959299;28;20074;-65
2023/08/01 05:01:07;;;;;;;36.45;32.78;;;17.80;99.90;;;;;;4965764;28;20072;-65
2023/08/01 05:03:32;;;;;;;34.60;31.35;;;18.20;99.90;;;;;;4965389;28;20039;-65
2023/08/01 05:05:58;;;;;;;35.35;31.95;;;19.80;99.90;;;;;;4963153;28;20058;-65
2023/08/01 05:08:23;;;;;;;34.35;30.10;;;18.10;99.90;;;;;;4967502;28;20101;-65
2023/08/01 05:10:50;;;;;;;33.20;29.88;;;19.70;99.90;;;;;;4968368;28;20392;-64
2023/08/01 05:13:15;;;;;;;34.17;30.80;;;17.80;99.90;;;;;;4970962;28;20043;-65
2023/08/01 05:15:44;;;;;;;33.70;30.20;;;18.30;99.90;;;;;;4965147;28;20039;-65
2023/08/01 05:18:10;;;;;;;33.58;30.35;;;19.90;99.90;;;;;;4964935;28;20671;-65
2023/08/01 05:20:36;;;;;;;35.33;31.60;;;18.40;99.90;;;;;;4963777;28;20115;-65
2023/08/01 05:23:01;;;;;;;33.70;30.35;;;17.70;99.90;;;;;;4963793;28;20045;-65
2023/08/01 05:25:27;;;;;;;34.70;31.15;;;19.80;99.90;;;;;;4964919;28;20043;-65
2023/08/01 05:27:52;;;;;;;35.50;31.67;;;17.80;99.90;;;;;;4967373;28;20093;-65
2023/08/01 05:30:18;;;;;;;35.08;31.38;;;18.10;99.90;;;;;;4966140;28;20046;-65
2023/08/01 05:32:45;;;;;;;35.35;31.75;;;19.10;99.90;;;;;;4970969;28;20042;-65
2023/08/01 05:35:11;;;;;;;36.13;32.63;;;19.30;99.90;;;;;;4961577;28;20050;-65
2023/08/01 05:37:36;;;;;;;33.80;30.55;;;17.70;99.90;;;;;;4963341;28;20062;-65
2023/08/01 05:40:03;;;;;;;36.47;32.65;;;18.10;99.90;;;;;;4963466;28;20690;-65
2023/08/01 05:42:29;;;;;;;36.55;31.67;;;19.70;99.90;;;;;;4982868;28;20065;-65
2023/08/01 05:44:54;;;;;;;33.28;29.67;;;18.50;99.90;;;;;;4960609;28;20043;-65
2023/08/01 05:47:20;;;;;;;39.15;29.45;;;18.00;99.90;;;;;;4963687;28;20065;-65
2023/08/01 05:49:45;;;;;;;35.25;28.60;;;18.20;99.90;;;;;;4963935;28;20051;-65
2023/08/01 05:52:11;;;;;;;33.22;28.80;;;18.70;99.90;;;;;;4962177;28;20839;-65
2023/08/01 05:54:36;;;;;;;35.38;29.13;;;20.40;99.90;;;;;;4962209;28;20576;-65
2023/08/01 05:57:02;;;;;;;39.90;30.33;;;20.30;99.90;;;;;;4967710;28;20485;-66
2023/08/01 05:59:28;;;;;;;34.13;30.10;;;19.30;99.90;;;;;;4960742;28;20501;-65
2023/08/01 06:01:53;;;;;;;33.97;30.52;;;18.60;99.90;;;;;;4961176;28;20105;-66
2023/08/01 06:04:19;;;;;;;35.38;30.80;;;18.30;99.90;;;;;;4970035;28;20048;-66
2023/08/01 06:06:45;;;;;;;34.72;31.15;;;18.30;99.90;;;;;;4970388;28;20085;-65
2023/08/01 06:09:10;;;;;;;36.05;32.03;;;17.90;99.90;;;;;;4964598;28;20042;-65
2023/08/01 06:11:36;;;;;;;33.58;29.85;;;18.00;99.90;;;;;;4962401;28;20058;-65
2023/08/01 06:14:01;;;;;;;33.30;29.25;;;18.10;99.90;;;;;;4962354;28;20125;-65
2023/08/01 06:16:27;;;;;;;34.30;30.10;;;20.50;99.90;;;;;;4961647;28;20047;-65
2023/08/01 06:18:53;;;;;;;33.00;28.40;;;18.30;99.90;;;;;;4963231;28;20047;-66
2023/08/01 06:21:18;;;;;;;40.75;25.65;;;20.50;99.90;;;;;;4958798;28;20517;-66
2023/08/01 06:23:44;;;;;;;31.65;26.55;;;20.50;99.90;;;;;;4959363;28;20047;-66
2023/08/01 06:26:10;;;;;;;37.35;27.83;;;18.40;99.90;;;;;;4962467;28;20062;-66
2023/08/01 06:28:35;;;;;;;31.65;26.13;;;19.70;99.90;;;;;;4958221;28;20046;-66
2023/08/01 06:31:01;;;;;;;37.35;27.80;;;18.70;99.90;;;;;;4960173;28;20047;-66
2023/08/01 06:33:26;;;;;;;33.85;28.30;;;20.60;99.90;;;;;;4963708;28;20117;-66
2023/08/01 06:35:52;;;;;;;31.75;26.20;;;19.00;99.90;;;;;;4959585;28;20046;-66
2023/08/01 06:38:17;;;;;;;30.55;27.30;;;18.00;99.90;;;;;;4957878;28;20061;-66
2023/08/01 06:40:43;;;;;;;31.10;27.75;;;18.80;99.90;;;;;;4960630;28;20126;-66
2023/08/01 06:43:09;;;;;;;30.75;27.63;;;18.00;99.90;;;;;;4962069;28;20079;-66
2023/08/01 06:45:34;;;;;;;29.60;26.48;;;20.50;99.90;;;;;;4963857;28;20027;-66
2023/08/01 06:48:00;;;;;;;38.45;28.65;;;20.60;99.90;;;;;;4964753;28;20038;-66
2023/08/01 06:50:25;;;;;;;40.13;27.90;;;20.90;99.90;;;;;;4963839;28;20077;-66
2023/08/01 06:52:51;;;;;;;35.50;28.50;;;18.20;99.90;;;;;;4965935;28;20047;-66
2023/08/01 06:55:16;;;;;;;35.55;27.70;;;20.50;99.90;;;;;;4963137;28;20042;-66
2023/08/01 06:57:42;;;;;;;36.25;29.45;;;18.50;99.90;;;;;;4958429;28;20042;-69
2023/08/01 07:00:08;;;;;;;33.45;28.02;;;20.90;99.90;;;;;;4961511;28;20066;-65
2023/08/01 07:02:34;;;;;;;36.90;26.35;;;19.70;99.90;;;;;;4966471;28;20126;-66
2023/08/01 07:04:59;;;;;;;30.45;25.38;;;19.60;99.90;;;;;;4966721;28;20133;-66
2023/08/01 07:07:25;;;;;;;29.92;26.23;;;18.00;99.90;;;;;;4965823;28;20074;-67
2023/08/01 07:09:50;;;;;;;33.08;24.33;;;18.30;99.90;;;;;;4964303;28;20055;-66
2023/08/01 07:12:16;;;;;;;41.40;28.45;;;19.30;99.90;;;;;;4970176;28;20039;-66
2023/08/01 07:14:42;;;;;;;38.55;27.52;;;20.00;99.90;;;;;;4964241;28;20070;-67
2023/08/01 07:17:08;;;;;;;37.38;27.55;;;19.80;99.90;;;;;;4966812;28;20054;-66
2023/08/01 07:19:33;;;;;;;40.30;28.10;;;18.00;99.90;;;;;;4967315;28;20039;-66
2023/08/01 07:21:59;;;;;;;37.83;29.00;;;18.30;99.90;;;;;;4964312;28;20043;-66
2023/08/01 07:24:24;;;;;;;31.25;27.92;;;20.60;99.90;;;;;;4961707;28;20057;-66
2023/08/01 07:26:50;;;;;;;30.40;26.63;;;18.60;99.90;;;;;;4965813;28;20418;-67
2023/08/01 07:29:15;;;;;;;30.45;27.65;;;18.60;99.90;;;;;;4964328;28;20075;-66
2023/08/01 07:31:42;;;;;;;31.17;28.10;;;19.90;99.90;;;;;;4962255;28;20050;-66
2023/08/01 07:34:08;;;;;;;30.58;27.40;;;20.00;99.90;;;;;;4962369;28;20047;-66
2023/08/01 07:36:34;;;;;;;31.20;27.88;;;20.70;99.90;;;;;;4967619;28;20404;-65
2023/08/01 07:38:59;;;;;;;33.63;30.08;;;20.30;99.90;;;;;;4967331;28;20046;-65
2023/08/01 07:41:25;;;;;;;35.53;31.75;;;18.60;99.90;;;;;;4964633;28;20039;-66
2023/08/01 07:43:50;;;;;;;34.78;31.13;;;21.50;99.90;;;;;;4964559;28;20764;-66
2023/08/01 07:46:16;;;;;;;32.10;28.85;;;18.90;99.90;;;;;;4969671;28;20046;-65
2023/08/01 07:48:41;;;;;;;32.63;29.63;;;21.60;99.90;;;;;;4965944;28;20062;-65
2023/08/01 07:51:07;;;;;;;29.63;26.58;;;20.60;99.90;;;;;;4966276;28;20051;-65
2023/08/01 07:53:34;;;;;;;25.27;22.88;;;19.70;99.90;;;;;;4965011;28;20097;-65
2023/08/01 07:56:02;;;;;;;30.65;27.80;;;21.00;99.90;;;;;;4962989;28;20043;-65
2023/08/01 07:58:28;;;;;;;28.50;25.73;;;21.70;99.90;;;;;;4964930;28;20047;-65
2023/08/01 08:00:53;;;;;;;29.95;26.88;;;21.40;99.90;;;;;;4964043;28;20065;-65
2023/08/01 08:03:22;;;;;;;37.70;29.98;;;21.70;99.90;;;;;;4966053;28;20062;-66
2023/08/01 08:05:48;;;;;;;27.98;25.27;;;20.30;99.90;;;;;;4965896;28;20047;-65
2023/08/01 08:08:13;;;;;;;28.42;25.85;;;21.70;99.90;;;;;;4965215;28;20362;-66
2023/08/01 08:10:39;;;;;;;30.23;27.25;;;20.00;99.90;;;;;;4963124;28;20042;-65
2023/08/01 08:13:04;;;;;;;30.23;27.10;;;21.10;99.90;;;;;;4962738;28;20596;-65
2023/08/01 08:15:34;;;;;;;30.90;25.75;;;20.60;99.90;;;;;;4964947;28;20852;-65
2023/08/01 08:18:01;;;;;;;29.67;26.65;;;20.70;99.90;;;;;;4967823;28;20039;-65
2023/08/01 08:20:26;;;;;;;31.60;28.40;;;21.00;99.90;;;;;;4959714;28;20102;-65
2023/08/01 08:22:52;;;;;;;33.92;30.50;;;20.40;99.90;;;;;;4963146;28;20142;-65
2023/08/01 08:25:17;;;;;;;32.88;29.25;;;21.00;99.90;;;;;;4960718;28;20380;-65
2023/08/01 08:27:43;;;;;;;36.72;32.75;;;20.10;99.90;;;;;;4965937;28;20036;-65
2023/08/01 08:30:09;;;;;;;37.45;30.42;;;20.60;99.90;;;;;;4964117;28;20137;-65
2023/08/01 08:32:36;;;;;;;37.13;33.28;;;21.30;99.90;;;;;;4966396;28;20150;-66
2023/08/01 08:35:02;;;;;;;29.75;26.55;;;21.40;99.90;;;;;;4959532;28;20048;-65
2023/08/01 08:37:27;;;;;;;28.58;25.77;;;20.40;99.90;;;;;;4960799;28;20061;-65
2023/08/01 08:39:53;;;;;;;28.48;25.38;;;21.10;99.90;;;;;;4964366;28;20130;-65
2023/08/01 08:42:22;;;;;;;29.10;26.30;;;21.40;99.90;;;;;;4965557;28;20534;-65
2023/08/01 08:44:54;;;;;;;35.50;29.77;;;20.80;99.90;;;;;;4961126;28;20039;-65
2023/08/01 08:47:24;;;;;;;36.90;30.45;;;20.60;99.90;;;;;;4959936;28;20047;-66
2023/08/01 08:49:51;;;;;;;29.65;26.45;;;21.50;99.90;;;;;;4966952;28;20047;-65
2023/08/01 08:52:17;;;;;;;35.03;30.05;;;20.40;99.90;;;;;;4961963;28;20050;-64
2023/08/01 08:54:44;;;;;;;39.15;29.75;;;21.00;99.90;;;;;;4964177;28;20050;-65
2023/08/01 08:57:10;;;;;;;33.13;29.48;;;20.60;99.90;;;;;;4965325;28;20038;-65
2023/08/01 08:59:37;;;;;;;30.25;27.05;;;20.70;99.90;;;;;;4962285;28;20077;-66
2023/08/01 09:02:04;;;;;;;31.08;27.90;;;21.30;99.90;;;;;;4961811;28;20038;-64
2023/08/01 09:04:31;;;;;;;29.30;26.45;;;20.90;99.90;;;;;;4960783;28;20173;-65
2023/08/01 09:07:03;;;;;;;39.53;28.70;;;21.30;99.90;;;;;;4965514;28;20046;-65
2023/08/01 09:09:28;;;;;;;32.60;25.77;;;20.30;99.90;;;;;;4963860;28;20109;-65
2023/08/01 09:11:56;;;;;;;27.15;24.30;;;20.80;99.90;;;;;;4961214;28;20460;-65
2023/08/01 09:14:22;;;;;;;29.17;25.75;;;21.10;99.90;;;;;;4961695;28;20063;-65
2023/08/01 09:16:48;;;;;;;31.85;27.02;;;20.90;99.90;;;;;;4966876;28;20035;-65
2023/08/01 09:19:23;;;;;;;28.58;25.60;;;21.30;99.90;;;;;;4962559;28;20571;-65
2023/08/01 09:21:49;;;;;;;28.40;23.70;;;21.40;99.90;;;;;;4962244;28;20515;-65
2023/08/01 09:24:17;;;;;;;31.98;25.67;;;20.90;99.90;;;;;;4961469;28;20035;-65
2023/08/01 09:26:44;;;;;;;28.10;25.15;;;21.10;99.90;;;;;;4961071;28;20043;-65
2023/08/01 09:29:09;;;;;;;27.25;24.50;;;21.40;99.90;;;;;;4958962;28;20053;-65
2023/08/01 09:31:39;;;;;;;26.63;23.83;;;21.20;99.90;;;;;;4960195;28;20599;-65
2023/08/01 09:34:17;;;;;;;29.02;25.85;;;21.00;99.90;;;;;;4960113;28;20050;-65
2023/08/01 09:36:43;;;;;;;26.50;22.88;;;21.70;69.70;;;;;;4963804;28;20674;-65
2023/08/01 09:39:15;;;;;;;28.85;24.00;;;21.60;99.90;;;;;;4960283;28;20070;-65
2023/08/01 09:41:40;;;;;;;28.33;25.35;;;21.60;1.00;;;;;;4958178;28;20039;-65
2023/08/01 09:44:09;;;;;;;24.90;22.25;;;21.70;88.20;;;;;;4965057;28;20046;-65
2023/08/01 09:46:35;;;;;;;26.17;23.35;;;22.20;99.90;;;;;;4963556;28;20496;-65
2023/08/01 09:49:09;;;;;;;25.88;22.98;;;22.10;12.60;;;;;;4963760;28;20039;-65
2023/08/01 09:51:45;;;;;;;25.67;22.70;;;21.70;99.90;;;;;;4956485;28;20042;-65
2023/08/01 09:54:11;;;;;;;27.15;23.35;;;22.20;99.90;;;;;;4965449;28;20105;-65
2023/08/01 09:56:37;;;;;;;31.90;24.27;;;22.10;99.90;;;;;;4961026;28;20062;-65
2023/08/01 09:59:03;;;;;;;27.15;24.33;;;21.90;3.30;;;;;;4960919;28;20050;-65
2023/08/01 10:01:32;;;;;;;28.98;24.10;;;21.90;99.90;;;;;;4961214;28;20038;-66
2023/08/01 10:03:58;;;;;;;26.70;23.65;;;22.20;99.90;;;;;;4965269;28;20424;-66
2023/08/01 10:06:28;;;;;;;24.35;21.95;;;22.30;99.90;;;;;;4963240;28;20057;-65
2023/08/01 10:08:54;;;;;;;27.08;22.88;;;22.50;1.00;;;;;;4963857;28;20046;-65
2023/08/01 10:11:21;;;;;;;24.70;22.05;;;22.60;1.00;;;;;;4962351;28;20047;-65
2023/08/01 10:13:47;;;;;;;24.42;22.10;;;22.50;99.90;;;;;;4963593;28;20395;-65
2023/08/01 10:16:15;;;;;;;22.17;19.83;;;22.60;99.90;;;;;;4959482;28;20066;-66
2023/08/01 10:18:41;;;;;;;21.60;18.48;;;22.60;99.90;;;;;;4962215;28;20058;-64
2023/08/01 10:21:13;;;;;;;21.90;19.67;;;22.30;99.90;;;;;;4957980;28;20043;-65
2023/08/01 10:23:39;;;;;;;20.98;18.77;;;22.40;99.90;;;;;;4964643;28;20070;-66
2023/08/01 10:26:07;;;;;;;29.13;21.02;;;22.30;99.90;;;;;;4962467;28;20127;-65
2023/08/01 10:28:33;;;;;;;26.02;23.42;;;22.20;99.90;;;;;;4978139;28;20043;-65
2023/08/01 10:31:13;;;;;;;28.50;24.92;;;22.20;1.00;;;;;;4959065;28;20043;-65
2023/08/01 10:33:41;;;;;;;28.60;23.70;;;21.80;1.00;;;;;;4957415;28;20061;-65
2023/08/01 10:36:17;;;;;;;28.85;24.67;;;21.70;1.00;;;;;;4957845;28;20524;-65
2023/08/01 10:38:54;;;;;;;28.65;25.60;;;21.90;49.00;;;;;;4962375;28;20058;-65
2023/08/01 10:41:34;;;;;;;31.25;25.90;;;21.50;57.10;;;;;;4958181;28;20070;-64
2023/08/01 10:44:14;;;;;;;30.02;24.95;;;22.00;99.90;;;;;;4963334;28;20047;-65
2023/08/01 10:46:47;;;;;;;28.73;24.33;;;21.50;99.90;;;;;;4952964;28;20074;-65
2023/08/01 10:49:12;;;;;;;32.83;24.77;;;20.80;99.90;;;;;;4957057;28;20059;-64
2023/08/01 10:51:38;;;;;;;29.30;23.40;;;21.80;99.90;;;;;;4959837;28;20081;-65
2023/08/01 10:54:03;;;;;;;29.40;23.15;;;22.40;99.90;;;;;;4961961;28;20039;-65
2023/08/01 10:56:31;;;;;;;29.10;24.40;;;22.00;99.90;;;;;;4958846;28;20030;-65
2023/08/01 10:58:57;;;;;;;29.13;23.48;;;22.30;99.90;;;;;;4960912;28;20043;-65
2023/08/01 11:01:23;;;;;;;30.63;26.17;;;22.10;99.90;;;;;;4958694;28;20054;-65
2023/08/01 11:03:48;;;;;;;31.15;24.83;;;21.80;1.00;;;;;;4965035;28;20050;-65
2023/08/01 11:06:14;;;;;;;35.03;25.70;;;22.40;99.90;;;;;;4959746;28;20090;-65
2023/08/01 11:08:41;;;;;;;27.38;24.00;;;22.00;99.90;;;;;;4959251;28;20047;-66
2023/08/01 11:11:11;;;;;;;31.42;23.10;;;22.70;99.90;;;;;;4956710;28;20049;-65
2023/08/01 11:13:36;;;;;;;25.98;23.25;;;22.50;1.00;;;;;;4959856;28;20043;-65
2023/08/01 11:16:06;;;;;;;26.88;23.98;;;22.70;1.00;;;;;;4955667;28;20523;-64
2023/08/01 11:18:44;;;;;;;26.35;23.33;;;22.40;99.90;;;;;;4960418;28;20567;-65
2023/08/01 11:21:10;;;;;;;28.80;23.90;;;22.80;99.90;;;;;;4959449;28;20564;-64
2023/08/01 11:23:39;;;;;;;27.08;23.38;;;22.90;1.00;;;;;;4959143;28;20118;-64
2023/08/01 11:26:11;;;;;;;32.53;24.73;;;23.10;99.90;;;;;;4959849;28;20153;-64
2023/08/01 11:28:39;;;;;;;26.50;21.47;;;22.80;99.90;;;;;;4958726;28;20402;-64
2023/08/01 11:31:12;;;;;;;27.35;22.80;;;22.90;1.00;;;;;;4957873;28;20046;-64
2023/08/01 11:33:38;;;;;;;30.17;24.83;;;22.90;1.00;;;;;;4961069;28;20725;-64
2023/08/01 11:36:05;;;;;;;35.22;28.98;;;22.50;99.90;;;;;;4956425;28;20042;-64
2023/08/01 11:38:33;;;;;;;35.50;29.38;;;22.00;91.40;;;;;;4958503;28;20191;-64
2023/08/01 11:41:03;;;;;;;27.42;24.52;;;21.90;99.90;;;;;;4944373;28;20417;-64
2023/08/01 11:43:42;;;;;;;26.90;24.23;;;21.90;99.90;;;;;;4958110;28;20039;-64
2023/08/01 11:46:09;;;;;;;28.73;25.65;;;21.80;94.40;;;;;;4962639;28;20508;-64
2023/08/01 11:48:35;;;;;;;31.10;27.60;;;21.90;99.90;;;;;;4968368;28;20101;-64
2023/08/01 11:51:02;;;;;;;38.97;28.45;;;21.60;99.90;;;;;;4968178;28;20049;-64
2023/08/01 11:53:29;;;;;;;32.17;25.25;;;21.80;42.10;;;;;;4969124;28;20100;-64
2023/08/01 11:55:56;;;;;;;27.77;24.90;;;21.70;1.00;;;;;;4962953;28;20122;-64
2023/08/01 11:58:36;;;;;;;38.40;32.90;;;22.20;1.00;;;;;;4961304;28;20101;-64
2023/08/01 12:01:03;;;;;;;37.58;32.33;;;22.10;47.00;;;;;;4949702;28;20580;-64
2023/08/01 12:03:29;;;;;;;38.50;33.95;;;22.20;99.90;;;;;;4963931;28;20055;-64
2023/08/01 12:06:05;;;;;;;41.72;35.25;;;22.10;1.00;;;;;;4964600;28;20053;-64
2023/08/01 12:08:34;;;;;;;40.35;32.63;;;21.40;1.00;;;;;;4966762;28;20042;-64
2023/08/01 12:11:00;;;;;;;33.30;29.70;;;21.90;99.90;;;;;;4965452;28;20508;-63
2023/08/01 12:13:26;;;;;;;30.90;27.60;;;21.80;1.00;;;;;;4969409;28;20046;-64
2023/08/01 12:15:55;;;;;;;33.45;29.25;;;21.50;99.90;;;;;;4961508;28;20452;-64
2023/08/01 12:18:26;;;;;;;36.78;29.98;;;21.80;99.90;;;;;;4964523;28;20038;-64
2023/08/01 12:20:52;;;;;;;30.42;27.30;;;21.60;1.00;;;;;;4964489;28;20031;-64
2023/08/01 12:23:18;;;;;;;29.40;26.25;;;22.20;99.90;;;;;;4967748;28;20038;-64
2023/08/01 12:25:44;;;;;;;30.15;26.95;;;21.90;99.90;;;;;;4964472;28;20051;-64